sensor_id;sensor_type;location;lat;lon;timestamp;temperature;humidity
19680;DHT22;9989;48.962;9.182;2023-09-12T00:00:49;22.00;99.90
19680;DHT22;9989;48.962;9.182;2023-09-12T00:03:18;22.00;99.90
19680;DHT22;9989;48.962;9.182;2023-09-12T00:05:54;21.90;99.90
19680;DHT22;9989;48.962;9.182;2023-09-12T00:08:20;21.90;99.90
19680;DHT22;9989;48.962;9.182;2023-09-12T00:10:46;21.80;99.90
19680;DHT22;9989;48.962;9.182;2023-09-12T00:13:11;21.80;99.90
19680;DHT22;9989;48.962;9.182;2023-09-12T00:15:37;21.70;99.90
19680;DHT22;9989;48.962;9.182;2023-09-12T00:18:03;21.60;99.90
19680;DHT22;9989;48.962;9.182;2023-09-12T00:20:29;21.60;99.90
19680;DHT22;9989;48.962;9.182;2023-09-12T00:22:55;21.50;99.90
19680;DHT22;9989;48.962;9.182;2023-09-12T00:25:21;21.50;99.90
19680;DHT22;9989;48.962;9.182;2023-09-12T00:27:47;21.40;99.90
19680;DHT22;9989;48.962;9.182;2023-09-12T00:30:14;21.50;99.90
19680;DHT22;9989;48.962;9.182;2023-09-12T00:32:40;21.40;99.90
19680;DHT22;9989;48.962;9.182;2023-09-12T00:35:06;21.40;99.90
19680;DHT22;9989;48.962;9.182;2023-09-12T00:37:31;21.50;99.90
19680;DHT22;9989;48.962;9.182;2023-09-12T00:39:57;21.50;99.90
19680;DHT22;9989;48.962;9.182;2023-09-12T00:42:25;21.50;99.90
19680;DHT22;9989;48.962;9.182;2023-09-12T00:44:51;21.50;99.90
19680;DHT22;9989;48.962;9.182;2023-09-12T00:47:17;21.50;99.90
19680;DHT22;9989;48.962;9.182;2023-09-12T00:49:45;21.40;99.90
19680;DHT22;9989;48.962;9.182;2023-09-12T00:52:12;21.40;99.90
19680;DHT22;9989;48.962;9.182;2023-09-12T00:54:38;21.40;99.90
19680;DHT22;9989;48.962;9.182;2023-09-12T00:57:04;21.30;99.90
19680;DHT22;9989;48.962;9.182;2023-09-12T00:59:30;21.30;99.90
19680;DHT22;9989;48.962;9.182;2023-09-12T01:01:56;21.30;99.90
19680;DHT22;9989;48.962;9.182;2023-09-12T01:04:22;21.20;99.90
19680;DHT22;9989;48.962;9.182;2023-09-12T01:06:48;21.20;99.90
19680;DHT22;9989;48.962;9.182;2023-09-12T01:09:14;21.20;99.90
19680;DHT22;9989;48.962;9.182;2023-09-12T01:11:40;21.10;99.90
19680;DHT22;9989;48.962;9.182;2023-09-12T01:14:06;21.00;99.90
19680;DHT22;9989;48.962;9.182;2023-09-12T01:16:32;21.00;99.90
19680;DHT22;9989;48.962;9.182;2023-09-12T01:18:57;21.10;99.90
19680;DHT22;9989;48.962;9.182;2023-09-12T01:27:25;21.10;99.90
19680;DHT22;9989;48.962;9.182;2023-09-12T01:29:57;21.20;99.90
19680;DHT22;9989;48.962;9.182;2023-09-12T01:32:23;21.20;99.90
19680;DHT22;9989;48.962;9.182;2023-09-12T01:34:48;21.10;99.90
19680;DHT22;9989;48.962;9.182;2023-09-12T01:37:14;21.10;99.90
19680;DHT22;9989;48.962;9.182;2023-09-12T01:39:40;21.10;99.90
19680;DHT22;9989;48.962;9.182;2023-09-12T01:42:09;21.10;99.90
19680;DHT22;9989;48.962;9.182;2023-09-12T01:44:37;21.10;99.90
19680;DHT22;9989;48.962;9.182;2023-09-12T01:47:04;21.10;99.90
19680;DHT22;9989;48.962;9.182;2023-09-12T01:49:31;21.10;99.90
19680;DHT22;9989;48.962;9.182;2023-09-12T01:51:58;21.10;99.90
19680;DHT22;9989;48.962;9.182;2023-09-12T01:54:26;21.00;99.90
19680;DHT22;9989;48.962;9.182;2023-09-12T01:56:54;21.00;99.90
19680;DHT22;9989;48.962;9.182;2023-09-12T01:59:23;21.00;99.90
19680;DHT22;9989;48.962;9.182;2023-09-12T02:01:48;21.00;99.90
19680;DHT22;9989;48.962;9.182;2023-09-12T02:04:14;20.90;99.90
19680;DHT22;9989;48.962;9.182;2023-09-12T02:06:39;20.90;99.90
19680;DHT22;9989;48.962;9.182;2023-09-12T02:09:05;20.90;99.90
19680;DHT22;9989;48.962;9.182;2023-09-12T02:11:32;20.90;99.90
19680;DHT22;9989;48.962;9.182;2023-09-12T02:13:57;20.90;99.90
19680;DHT22;9989;48.962;9.182;2023-09-12T02:16:23;20.90;99.90
19680;DHT22;9989;48.962;9.182;2023-09-12T02:18:48;20.80;99.90
19680;DHT22;9989;48.962;9.182;2023-09-12T02:21:14;20.80;99.90
19680;DHT22;9989;48.962;9.182;2023-09-12T02:23:41;20.80;99.90
19680;DHT22;9989;48.962;9.182;2023-09-12T02:26:07;20.80;99.90
19680;DHT22;9989;48.962;9.182;2023-09-12T02:28:32;20.70;99.90
19680;DHT22;9989;48.962;9.182;2023-09-12T02:30:58;20.70;99.90
19680;DHT22;9989;48.962;9.182;2023-09-12T02:33:23;20.70;99.90
19680;DHT22;9989;48.962;9.182;2023-09-12T02:35:49;20.70;99.90
19680;DHT22;9989;48.962;9.182;2023-09-12T02:38:14;20.70;99.90
19680;DHT22;9989;48.962;9.182;2023-09-12T02:40:40;20.60;99.90
19680;DHT22;9989;48.962;9.182;2023-09-12T02:43:06;20.60;99.90
19680;DHT22;9989;48.962;9.182;2023-09-12T02:45:31;20.60;99.90
19680;DHT22;9989;48.962;9.182;2023-09-12T02:47:57;20.60;99.90
19680;DHT22;9989;48.962;9.182;2023-09-12T02:50:22;20.50;99.90
19680;DHT22;9989;48.962;9.182;2023-09-12T02:52:48;20.50;99.90
19680;DHT22;9989;48.962;9.182;2023-09-12T02:55:13;20.50;99.90
19680;DHT22;9989;48.962;9.182;2023-09-12T02:57:39;20.50;99.90
19680;DHT22;9989;48.962;9.182;2023-09-12T03:00:05;20.50;99.90
19680;DHT22;9989;48.962;9.182;2023-09-12T03:02:33;20.50;99.90
19680;DHT22;9989;48.962;9.182;2023-09-12T03:04:59;20.50;99.90
19680;DHT22;9989;48.962;9.182;2023-09-12T03:07:24;20.50;99.90
19680;DHT22;9989;48.962;9.182;2023-09-12T03:09:50;20.40;99.90
19680;DHT22;9989;48.962;9.182;2023-09-12T03:12:16;20.40;99.90
19680;DHT22;9989;48.962;9.182;2023-09-12T03:14:41;20.30;99.90
19680;DHT22;9989;48.962;9.182;2023-09-12T03:17:07;20.30;99.90
19680;DHT22;9989;48.962;9.182;2023-09-12T03:19:32;20.30;99.90
19680;DHT22;9989;48.962;9.182;2023-09-12T03:21:58;20.20;99.90
19680;DHT22;9989;48.962;9.182;2023-09-12T03:24:23;20.20;99.90
19680;DHT22;9989;48.962;9.182;2023-09-12T03:26:51;20.20;99.90
19680;DHT22;9989;48.962;9.182;2023-09-12T03:29:16;20.20;99.90
19680;DHT22;9989;48.962;9.182;2023-09-12T03:31:42;20.20;99.90
19680;DHT22;9989;48.962;9.182;2023-09-12T03:34:08;20.20;99.90
19680;DHT22;9989;48.962;9.182;2023-09-12T03:36:33;20.20;99.90
19680;DHT22;9989;48.962;9.182;2023-09-12T03:38:59;20.20;99.90
19680;DHT22;9989;48.962;9.182;2023-09-12T03:41:25;20.20;99.90
19680;DHT22;9989;48.962;9.182;2023-09-12T03:43:54;20.20;99.90
19680;DHT22;9989;48.962;9.182;2023-09-12T03:46:20;20.20;99.90
19680;DHT22;9989;48.962;9.182;2023-09-12T03:48:46;20.10;99.90
19680;DHT22;9989;48.962;9.182;2023-09-12T03:51:12;20.10;99.90
19680;DHT22;9989;48.962;9.182;2023-09-12T03:53:38;20.10;99.90
19680;DHT22;9989;48.962;9.182;2023-09-12T03:56:04;20.10;99.90
19680;DHT22;9989;48.962;9.182;2023-09-12T03:58:29;20.10;99.90
19680;DHT22;9989;48.962;9.182;2023-09-12T04:00:55;20.10;99.90
19680;DHT22;9989;48.962;9.182;2023-09-12T04:03:20;20.10;99.90
19680;DHT22;9989;48.962;9.182;2023-09-12T04:05:50;20.10;99.90
19680;DHT22;9989;48.962;9.182;2023-09-12T04:08:15;20.10;99.90
19680;DHT22;9989;48.962;9.182;2023-09-12T04:10:42;20.10;99.90
19680;DHT22;9989;48.962;9.182;2023-09-12T04:13:08;20.20;99.90
19680;DHT22;9989;48.962;9.182;2023-09-12T04:15:33;20.20;99.90
19680;DHT22;9989;48.962;9.182;2023-09-12T04:17:59;20.20;99.90
19680;DHT22;9989;48.962;9.182;2023-09-12T04:20:25;20.20;99.90
19680;DHT22;9989;48.962;9.182;2023-09-12T04:22:50;20.20;99.90
19680;DHT22;9989;48.962;9.182;2023-09-12T04:25:16;20.20;99.90
19680;DHT22;9989;48.962;9.182;2023-09-12T04:27:43;20.30;99.90
19680;DHT22;9989;48.962;9.182;2023-09-12T04:30:09;20.30;99.90
19680;DHT22;9989;48.962;9.182;2023-09-12T04:32:34;20.30;99.90
19680;DHT22;9989;48.962;9.182;2023-09-12T04:35:00;20.30;99.90
19680;DHT22;9989;48.962;9.182;2023-09-12T04:37:25;20.30;99.90
19680;DHT22;9989;48.962;9.182;2023-09-12T04:39:51;20.30;99.90
19680;DHT22;9989;48.962;9.182;2023-09-12T04:42:17;20.20;99.90
19680;DHT22;9989;48.962;9.182;2023-09-12T04:44:42;20.30;99.90
19680;DHT22;9989;48.962;9.182;2023-09-12T04:47:08;20.20;99.90
19680;DHT22;9989;48.962;9.182;2023-09-12T04:49:35;20.20;99.90
19680;DHT22;9989;48.962;9.182;2023-09-12T04:52:00;20.30;99.90
19680;DHT22;9989;48.962;9.182;2023-09-12T04:54:26;20.30;99.90
19680;DHT22;9989;48.962;9.182;2023-09-12T04:56:51;20.30;99.90
19680;DHT22;9989;48.962;9.182;2023-09-12T04:59:17;20.30;99.90
19680;DHT22;9989;48.962;9.182;2023-09-12T05:01:43;20.30;99.90
19680;DHT22;9989;48.962;9.182;2023-09-12T05:04:08;20.40;99.90
19680;DHT22;9989;48.962;9.182;2023-09-12T05:06:35;20.40;99.90
19680;DHT22;9989;48.962;9.182;2023-09-12T05:09:00;20.40;99.90
19680;DHT22;9989;48.962;9.182;2023-09-12T05:11:26;20.40;99.90
19680;DHT22;9989;48.962;9.182;2023-09-12T05:13:51;20.40;99.90
19680;DHT22;9989;48.962;9.182;2023-09-12T05:16:17;20.50;99.90
19680;DHT22;9989;48.962;9.182;2023-09-12T05:18:43;20.50;99.90
19680;DHT22;9989;48.962;9.182;2023-09-12T05:21:08;20.50;99.90
19680;DHT22;9989;48.962;9.182;2023-09-12T05:23:34;20.50;99.90
19680;DHT22;9989;48.962;9.182;2023-09-12T05:26:00;20.50;99.90
19680;DHT22;9989;48.962;9.182;2023-09-12T05:28:25;20.60;99.90
19680;DHT22;9989;48.962;9.182;2023-09-12T05:30:51;20.60;99.90
19680;DHT22;9989;48.962;9.182;2023-09-12T05:33:17;20.70;99.90
19680;DHT22;9989;48.962;9.182;2023-09-12T05:35:43;20.70;99.90
19680;DHT22;9989;48.962;9.182;2023-09-12T05:38:10;20.80;99.90
19680;DHT22;9989;48.962;9.182;2023-09-12T05:40:35;20.80;99.90
19680;DHT22;9989;48.962;9.182;2023-09-12T05:43:01;20.90;99.90
19680;DHT22;9989;48.962;9.182;2023-09-12T05:45:28;21.00;99.90
19680;DHT22;9989;48.962;9.182;2023-09-12T05:47:58;21.00;99.90
19680;DHT22;9989;48.962;9.182;2023-09-12T05:50:24;21.00;99.90
19680;DHT22;9989;48.962;9.182;2023-09-12T05:52:50;21.10;99.90
19680;DHT22;9989;48.962;9.182;2023-09-12T05:55:16;21.10;99.90
19680;DHT22;9989;48.962;9.182;2023-09-12T05:57:43;21.20;99.90
19680;DHT22;9989;48.962;9.182;2023-09-12T06:00:09;21.20;99.90
19680;DHT22;9989;48.962;9.182;2023-09-12T06:02:40;21.30;99.90
19680;DHT22;9989;48.962;9.182;2023-09-12T06:05:05;21.30;99.90
19680;DHT22;9989;48.962;9.182;2023-09-12T06:07:31;21.40;99.90
19680;DHT22;9989;48.962;9.182;2023-09-12T06:09:58;21.50;99.90
19680;DHT22;9989;48.962;9.182;2023-09-12T06:12:23;21.50;99.90
19680;DHT22;9989;48.962;9.182;2023-09-12T06:14:49;21.60;99.90
19680;DHT22;9989;48.962;9.182;2023-09-12T06:17:15;21.60;99.90
19680;DHT22;9989;48.962;9.182;2023-09-12T06:19:40;21.70;99.90
19680;DHT22;9989;48.962;9.182;2023-09-12T06:22:06;21.70;99.90
19680;DHT22;9989;48.962;9.182;2023-09-12T06:24:31;21.80;99.90
19680;DHT22;9989;48.962;9.182;2023-09-12T06:30:19;21.90;99.90
19680;DHT22;9989;48.962;9.182;2023-09-12T06:36:07;22.00;99.90
19680;DHT22;9989;48.962;9.182;2023-09-12T06:38:32;22.00;99.90
19680;DHT22;9989;48.962;9.182;2023-09-12T06:40:58;22.10;99.90
19680;DHT22;9989;48.962;9.182;2023-09-12T06:43:23;22.10;99.90
19680;DHT22;9989;48.962;9.182;2023-09-12T06:45:49;22.20;99.90
19680;DHT22;9989;48.962;9.182;2023-09-12T06:48:16;22.30;99.90
19680;DHT22;9989;48.962;9.182;2023-09-12T06:50:41;22.30;99.90
19680;DHT22;9989;48.962;9.182;2023-09-12T06:53:07;22.40;99.90
19680;DHT22;9989;48.962;9.182;2023-09-12T06:55:33;22.40;99.90
19680;DHT22;9989;48.962;9.182;2023-09-12T06:57:59;22.50;99.90
19680;DHT22;9989;48.962;9.182;2023-09-12T07:00:25;22.50;99.90
19680;DHT22;9989;48.962;9.182;2023-09-12T07:02:52;22.60;99.90
19680;DHT22;9989;48.962;9.182;2023-09-12T07:05:17;22.70;99.90
19680;DHT22;9989;48.962;9.182;2023-09-12T07:07:43;22.80;99.90
19680;DHT22;9989;48.962;9.182;2023-09-12T07:10:09;22.80;99.90
19680;DHT22;9989;48.962;9.182;2023-09-12T07:12:34;22.90;99.90
19680;DHT22;9989;48.962;9.182;2023-09-12T07:15:00;23.00;99.90
19680;DHT22;9989;48.962;9.182;2023-09-12T07:17:28;23.10;99.90
19680;DHT22;9989;48.962;9.182;2023-09-12T07:19:53;23.30;99.90
19680;DHT22;9989;48.962;9.182;2023-09-12T07:22:19;23.40;99.90
19680;DHT22;9989;48.962;9.182;2023-09-12T07:24:44;23.50;99.90
19680;DHT22;9989;48.962;9.182;2023-09-12T07:27:10;23.50;99.90
19680;DHT22;9989;48.962;9.182;2023-09-12T07:29:35;23.60;99.90
19680;DHT22;9989;48.962;9.182;2023-09-12T07:32:01;23.60;99.90
19680;DHT22;9989;48.962;9.182;2023-09-12T07:34:26;23.60;99.90
19680;DHT22;9989;48.962;9.182;2023-09-12T07:36:52;23.70;99.90
19680;DHT22;9989;48.962;9.182;2023-09-12T07:39:19;23.70;99.90
19680;DHT22;9989;48.962;9.182;2023-09-12T07:41:44;23.80;99.90
19680;DHT22;9989;48.962;9.182;2023-09-12T07:44:10;23.90;99.90
19680;DHT22;9989;48.962;9.182;2023-09-12T07:46:37;23.90;99.90
19680;DHT22;9989;48.962;9.182;2023-09-12T07:49:03;24.00;99.90
19680;DHT22;9989;48.962;9.182;2023-09-12T07:51:29;24.00;99.90
19680;DHT22;9989;48.962;9.182;2023-09-12T07:53:54;24.00;99.90
19680;DHT22;9989;48.962;9.182;2023-09-12T07:56:20;24.10;99.90
19680;DHT22;9989;48.962;9.182;2023-09-12T07:58:45;24.10;99.90
19680;DHT22;9989;48.962;9.182;2023-09-12T08:01:11;24.20;99.90
19680;DHT22;9989;48.962;9.182;2023-09-12T08:03:37;24.40;99.90
19680;DHT22;9989;48.962;9.182;2023-09-12T08:06:04;24.50;99.90
19680;DHT22;9989;48.962;9.182;2023-09-12T08:08:30;24.70;99.90
19680;DHT22;9989;48.962;9.182;2023-09-12T08:10:56;24.80;99.90
19680;DHT22;9989;48.962;9.182;2023-09-12T08:13:25;25.00;99.90
19680;DHT22;9989;48.962;9.182;2023-09-12T08:15:51;25.10;99.90
19680;DHT22;9989;48.962;9.182;2023-09-12T08:18:16;25.20;99.90
19680;DHT22;9989;48.962;9.182;2023-09-12T08:20:42;25.40;99.90
19680;DHT22;9989;48.962;9.182;2023-09-12T08:23:09;25.50;99.90
19680;DHT22;9989;48.962;9.182;2023-09-12T08:25:34;25.60;99.90
19680;DHT22;9989;48.962;9.182;2023-09-12T08:28:00;25.70;99.90
19680;DHT22;9989;48.962;9.182;2023-09-12T08:30:25;25.80;99.90
19680;DHT22;9989;48.962;9.182;2023-09-12T08:32:51;26.00;99.90
19680;DHT22;9989;48.962;9.182;2023-09-12T08:35:16;26.20;99.90
19680;DHT22;9989;48.962;9.182;2023-09-12T08:37:42;26.40;99.90
19680;DHT22;9989;48.962;9.182;2023-09-12T08:40:09;26.60;99.90
19680;DHT22;9989;48.962;9.182;2023-09-12T08:42:43;26.80;99.90
19680;DHT22;9989;48.962;9.182;2023-09-12T08:47:41;27.30;99.90
19680;DHT22;9989;48.962;9.182;2023-09-12T08:50:14;27.50;99.90
19680;DHT22;9989;48.962;9.182;2023-09-12T08:52:43;27.60;99.90
19680;DHT22;9989;48.962;9.182;2023-09-12T08:55:09;27.70;99.90
19680;DHT22;9989;48.962;9.182;2023-09-12T08:57:40;27.80;99.90
19680;DHT22;9989;48.962;9.182;2023-09-12T09:00:07;27.80;99.90
19680;DHT22;9989;48.962;9.182;2023-09-12T09:02:39;27.80;99.90
19680;DHT22;9989;48.962;9.182;2023-09-12T09:05:06;28.00;99.90
19680;DHT22;9989;48.962;9.182;2023-09-12T09:07:39;28.00;99.90
19680;DHT22;9989;48.962;9.182;2023-09-12T09:10:07;28.20;99.90
19680;DHT22;9989;48.962;9.182;2023-09-12T09:12:34;28.40;99.90
19680;DHT22;9989;48.962;9.182;2023-09-12T09:17:52;28.90;99.90
19680;DHT22;9989;48.962;9.182;2023-09-12T09:20:32;29.00;99.90
19680;DHT22;9989;48.962;9.182;2023-09-12T09:23:10;28.90;99.90
19680;DHT22;9989;48.962;9.182;2023-09-12T09:25:39;28.80;99.90
19680;DHT22;9989;48.962;9.182;2023-09-12T09:28:27;28.80;99.90
19680;DHT22;9989;48.962;9.182;2023-09-12T09:30:52;28.80;99.90
19680;DHT22;9989;48.962;9.182;2023-09-12T09:33:20;28.90;99.90
19680;DHT22;9989;48.962;9.182;2023-09-12T09:35:47;29.00;99.90
19680;DHT22;9989;48.962;9.182;2023-09-12T09:38:14;29.00;99.90
19680;DHT22;9989;48.962;9.182;2023-09-12T09:40:44;29.10;99.90
19680;DHT22;9989;48.962;9.182;2023-09-12T09:43:10;29.20;99.90
19680;DHT22;9989;48.962;9.182;2023-09-12T09:45:43;29.40;99.90
19680;DHT22;9989;48.962;9.182;2023-09-12T09:48:10;29.50;99.90
19680;DHT22;9989;48.962;9.182;2023-09-12T09:50:35;29.70;99.90
19680;DHT22;9989;48.962;9.182;2023-09-12T09:53:04;30.00;99.40
19680;DHT22;9989;48.962;9.182;2023-09-12T09:55:34;30.20;98.70
19680;DHT22;9989;48.962;9.182;2023-09-12T09:57:59;30.50;98.00
19680;DHT22;9989;48.962;9.182;2023-09-12T10:00:25;30.80;96.70
19680;DHT22;9989;48.962;9.182;2023-09-12T10:02:54;31.10;96.10
19680;DHT22;9989;48.962;9.182;2023-09-12T10:05:21;31.40;95.40
19680;DHT22;9989;48.962;9.182;2023-09-12T10:07:49;31.60;94.40
19680;DHT22;9989;48.962;9.182;2023-09-12T10:10:17;31.90;93.80
19680;DHT22;9989;48.962;9.182;2023-09-12T10:12:49;32.10;92.60
19680;DHT22;9989;48.962;9.182;2023-09-12T10:15:18;32.30;91.60
19680;DHT22;9989;48.962;9.182;2023-09-12T10:17:47;32.40;91.00
19680;DHT22;9989;48.962;9.182;2023-09-12T10:20:20;32.60;90.60
19680;DHT22;9989;48.962;9.182;2023-09-12T10:22:56;32.80;89.30
19680;DHT22;9989;48.962;9.182;2023-09-12T10:25:24;32.80;86.00
19680;DHT22;9989;48.962;9.182;2023-09-12T10:27:50;32.80;84.90
19680;DHT22;9989;48.962;9.182;2023-09-12T10:30:17;32.80;85.50
19680;DHT22;9989;48.962;9.182;2023-09-12T10:32:45;32.90;86.10
19680;DHT22;9989;48.962;9.182;2023-09-12T10:35:12;33.10;85.90
19680;DHT22;9989;48.962;9.182;2023-09-12T10:37:41;33.30;84.70
19680;DHT22;9989;48.962;9.182;2023-09-12T10:40:08;33.50;83.50
19680;DHT22;9989;48.962;9.182;2023-09-12T10:42:35;33.70;82.00
19680;DHT22;9989;48.962;9.182;2023-09-12T10:45:01;33.90;79.90
19680;DHT22;9989;48.962;9.182;2023-09-12T10:47:29;34.10;80.10
19680;DHT22;9989;48.962;9.182;2023-09-12T10:49:56;34.30;79.70
19680;DHT22;9989;48.962;9.182;2023-09-12T10:52:26;34.40;77.70
19680;DHT22;9989;48.962;9.182;2023-09-12T10:54:52;34.60;76.30
19680;DHT22;9989;48.962;9.182;2023-09-12T10:57:19;34.80;75.00
19680;DHT22;9989;48.962;9.182;2023-09-12T11:02:37;34.80;73.90
19680;DHT22;9989;48.962;9.182;2023-09-12T11:05:50;34.90;72.80
19680;DHT22;9989;48.962;9.182;2023-09-12T11:07:50;34.80;71.70
19680;DHT22;9989;48.962;9.182;2023-09-12T11:10:16;34.80;71.40
19680;DHT22;9989;48.962;9.182;2023-09-12T11:12:55;34.70;70.50
19680;DHT22;9989;48.962;9.182;2023-09-12T11:15:23;34.60;71.40
19680;DHT22;9989;48.962;9.182;2023-09-12T11:18:01;34.70;72.00
19680;DHT22;9989;48.962;9.182;2023-09-12T11:23:15;34.80;72.30
19680;DHT22;9989;48.962;9.182;2023-09-12T11:25:40;35.00;70.90
19680;DHT22;9989;48.962;9.182;2023-09-12T11:28:06;35.10;69.30
19680;DHT22;9989;48.962;9.182;2023-09-12T11:30:32;35.20;65.30
19680;DHT22;9989;48.962;9.182;2023-09-12T11:32:58;35.10;65.30
19680;DHT22;9989;48.962;9.182;2023-09-12T11:35:29;35.00;65.80
19680;DHT22;9989;48.962;9.182;2023-09-12T11:37:57;35.10;65.20
19680;DHT22;9989;48.962;9.182;2023-09-12T11:42:57;35.30;65.40
19680;DHT22;9989;48.962;9.182;2023-09-12T11:45:23;35.50;66.20
19680;DHT22;9989;48.962;9.182;2023-09-12T11:47:49;35.80;66.20
19680;DHT22;9989;48.962;9.182;2023-09-12T11:50:31;36.00;65.20
19680;DHT22;9989;48.962;9.182;2023-09-12T11:53:01;36.30;64.80
19680;DHT22;9989;48.962;9.182;2023-09-12T11:55:27;36.50;62.30
19680;DHT22;9989;48.962;9.182;2023-09-12T11:57:55;36.80;62.00
19680;DHT22;9989;48.962;9.182;2023-09-12T12:00:22;36.90;61.90
19680;DHT22;9989;48.962;9.182;2023-09-12T12:02:47;37.10;61.50
19680;DHT22;9989;48.962;9.182;2023-09-12T12:05:13;37.20;61.10
19680;DHT22;9989;48.962;9.182;2023-09-12T12:07:39;37.40;61.80
19680;DHT22;9989;48.962;9.182;2023-09-12T12:10:05;37.60;61.10
19680;DHT22;9989;48.962;9.182;2023-09-12T12:12:31;37.80;61.90
19680;DHT22;9989;48.962;9.182;2023-09-12T12:14:56;37.90;59.80
19680;DHT22;9989;48.962;9.182;2023-09-12T12:17:22;38.00;59.00
19680;DHT22;9989;48.962;9.182;2023-09-12T12:19:48;38.00;59.60
19680;DHT22;9989;48.962;9.182;2023-09-12T12:22:13;38.00;59.90
19680;DHT22;9989;48.962;9.182;2023-09-12T12:24:45;38.10;59.00
19680;DHT22;9989;48.962;9.182;2023-09-12T12:27:11;38.30;59.20
19680;DHT22;9989;48.962;9.182;2023-09-12T12:29:37;38.50;58.20
19680;DHT22;9989;48.962;9.182;2023-09-12T12:32:05;38.50;57.50
19680;DHT22;9989;48.962;9.182;2023-09-12T12:34:31;38.30;57.20
19680;DHT22;9989;48.962;9.182;2023-09-12T12:36:57;37.90;57.90
19680;DHT22;9989;48.962;9.182;2023-09-12T12:39:23;37.60;58.90
19680;DHT22;9989;48.962;9.182;2023-09-12T12:41:51;37.50;59.60
19680;DHT22;9989;48.962;9.182;2023-09-12T12:44:17;37.70;59.20
19680;DHT22;9989;48.962;9.182;2023-09-12T12:46:53;38.00;60.00
19680;DHT22;9989;48.962;9.182;2023-09-12T12:49:20;38.40;59.40
19680;DHT22;9989;48.962;9.182;2023-09-12T12:51:46;38.90;58.10
19680;DHT22;9989;48.962;9.182;2023-09-12T12:54:13;39.40;56.80
19680;DHT22;9989;48.962;9.182;2023-09-12T12:56:39;39.80;56.00
19680;DHT22;9989;48.962;9.182;2023-09-12T12:59:06;39.90;54.90
19680;DHT22;9989;48.962;9.182;2023-09-12T13:01:36;39.50;55.00
19680;DHT22;9989;48.962;9.182;2023-09-12T13:04:05;39.00;55.50
19680;DHT22;9989;48.962;9.182;2023-09-12T13:06:31;38.30;56.40
19680;DHT22;9989;48.962;9.182;2023-09-12T13:09:01;37.60;57.30
19680;DHT22;9989;48.962;9.182;2023-09-12T13:11:30;36.90;58.40
19680;DHT22;9989;48.962;9.182;2023-09-12T13:13:55;36.30;59.90
19680;DHT22;9989;48.962;9.182;2023-09-12T13:16:22;35.80;61.60
19680;DHT22;9989;48.962;9.182;2023-09-12T13:18:47;35.40;62.90
19680;DHT22;9989;48.962;9.182;2023-09-12T13:21:13;35.20;64.60
19680;DHT22;9989;48.962;9.182;2023-09-12T13:23:39;35.40;65.90
19680;DHT22;9989;48.962;9.182;2023-09-12T13:26:07;36.40;62.80
19680;DHT22;9989;48.962;9.182;2023-09-12T13:28:32;37.90;61.30
19680;DHT22;9989;48.962;9.182;2023-09-12T13:30:58;39.20;57.70
19680;DHT22;9989;48.962;9.182;2023-09-12T13:33:24;39.90;56.00
19680;DHT22;9989;48.962;9.182;2023-09-12T13:35:50;40.40;54.40
19680;DHT22;9989;48.962;9.182;2023-09-12T13:38:16;41.10;52.20
19680;DHT22;9989;48.962;9.182;2023-09-12T13:40:44;42.00;51.20
19680;DHT22;9989;48.962;9.182;2023-09-12T13:43:10;42.80;48.90
19680;DHT22;9989;48.962;9.182;2023-09-12T13:45:36;43.60;48.30
19680;DHT22;9989;48.962;9.182;2023-09-12T13:48:03;44.10;46.60
19680;DHT22;9989;48.962;9.182;2023-09-12T13:50:30;44.60;45.20
19680;DHT22;9989;48.962;9.182;2023-09-12T13:53:00;44.90;44.10
19680;DHT22;9989;48.962;9.182;2023-09-12T13:55:25;45.10;43.40
19680;DHT22;9989;48.962;9.182;2023-09-12T13:57:51;45.30;42.30
19680;DHT22;9989;48.962;9.182;2023-09-12T14:00:17;45.30;41.50
19680;DHT22;9989;48.962;9.182;2023-09-12T14:02:43;45.30;41.70
19680;DHT22;9989;48.962;9.182;2023-09-12T14:05:09;45.40;41.40
19680;DHT22;9989;48.962;9.182;2023-09-12T14:07:36;45.50;41.40
19680;DHT22;9989;48.962;9.182;2023-09-12T14:10:02;45.60;41.80
19680;DHT22;9989;48.962;9.182;2023-09-12T14:12:28;45.90;41.40
19680;DHT22;9989;48.962;9.182;2023-09-12T14:14:54;46.10;40.90
19680;DHT22;9989;48.962;9.182;2023-09-12T14:17:19;46.10;41.30
19680;DHT22;9989;48.962;9.182;2023-09-12T14:19:45;46.10;40.80
19680;DHT22;9989;48.962;9.182;2023-09-12T14:22:11;45.90;40.80
19680;DHT22;9989;48.962;9.182;2023-09-12T14:24:36;45.60;41.50
19680;DHT22;9989;48.962;9.182;2023-09-12T14:27:02;45.30;42.30
19680;DHT22;9989;48.962;9.182;2023-09-12T14:29:28;45.20;42.00
19680;DHT22;9989;48.962;9.182;2023-09-12T14:31:55;45.20;40.90
19680;DHT22;9989;48.962;9.182;2023-09-12T14:34:26;45.40;40.80
19680;DHT22;9989;48.962;9.182;2023-09-12T14:36:54;45.60;40.40
19680;DHT22;9989;48.962;9.182;2023-09-12T14:39:24;45.70;40.30
19680;DHT22;9989;48.962;9.182;2023-09-12T14:41:50;45.90;40.20
19680;DHT22;9989;48.962;9.182;2023-09-12T14:44:24;46.10;40.10
19680;DHT22;9989;48.962;9.182;2023-09-12T14:46:50;46.10;40.00
19680;DHT22;9989;48.962;9.182;2023-09-12T14:49:16;46.10;40.00
19680;DHT22;9989;48.962;9.182;2023-09-12T14:51:41;46.10;40.40
19680;DHT22;9989;48.962;9.182;2023-09-12T14:54:07;45.70;40.20
19680;DHT22;9989;48.962;9.182;2023-09-12T14:56:33;45.10;40.60
19680;DHT22;9989;48.962;9.182;2023-09-12T14:59:00;44.50;40.30
19680;DHT22;9989;48.962;9.182;2023-09-12T15:01:25;43.70;41.30
19680;DHT22;9989;48.962;9.182;2023-09-12T15:03:52;43.00;42.30
19680;DHT22;9989;48.962;9.182;2023-09-12T15:06:18;42.30;43.20
19680;DHT22;9989;48.962;9.182;2023-09-12T15:08:43;41.50;44.20
19680;DHT22;9989;48.962;9.182;2023-09-12T15:11:09;41.00;45.10
19680;DHT22;9989;48.962;9.182;2023-09-12T15:13:35;40.90;45.30
19680;DHT22;9989;48.962;9.182;2023-09-12T15:16:02;40.90;45.90
19680;DHT22;9989;48.962;9.182;2023-09-12T15:18:27;40.90;45.90
19680;DHT22;9989;48.962;9.182;2023-09-12T15:20:53;40.80;45.40
19680;DHT22;9989;48.962;9.182;2023-09-12T15:23:19;40.80;45.10
19680;DHT22;9989;48.962;9.182;2023-09-12T15:25:46;40.80;45.10
19680;DHT22;9989;48.962;9.182;2023-09-12T15:28:12;40.80;45.50
19680;DHT22;9989;48.962;9.182;2023-09-12T15:30:37;40.70;44.50
19680;DHT22;9989;48.962;9.182;2023-09-12T15:33:03;40.80;45.80
19680;DHT22;9989;48.962;9.182;2023-09-12T15:35:29;40.90;45.60
19680;DHT22;9989;48.962;9.182;2023-09-12T15:37:54;40.90;45.00
19680;DHT22;9989;48.962;9.182;2023-09-12T15:40:20;40.50;44.90
19680;DHT22;9989;48.962;9.182;2023-09-12T15:42:45;40.10;45.70
19680;DHT22;9989;48.962;9.182;2023-09-12T15:45:12;39.80;46.20
19680;DHT22;9989;48.962;9.182;2023-09-12T15:47:37;39.70;46.10
19680;DHT22;9989;48.962;9.182;2023-09-12T15:50:05;39.80;46.30
19680;DHT22;9989;48.962;9.182;2023-09-12T15:52:30;39.90;46.40
19680;DHT22;9989;48.962;9.182;2023-09-12T15:55:02;40.00;46.30
19680;DHT22;9989;48.962;9.182;2023-09-12T15:57:28;40.00;46.00
19680;DHT22;9989;48.962;9.182;2023-09-12T15:59:54;39.80;46.20
19680;DHT22;9989;48.962;9.182;2023-09-12T16:02:19;39.40;47.00
19680;DHT22;9989;48.962;9.182;2023-09-12T16:04:45;38.90;47.70
19680;DHT22;9989;48.962;9.182;2023-09-12T16:07:10;38.40;48.20